Time;durP1;ratioP1;P1;durP2;ratioP2;P2;SDS_P1;SDS_P2;PMS_P1;PMS_P2;Temp;Humidity;BMP_temperature;BMP_pressure;BME280_temperature;BME280_humidity;BME280_pressure;Samples;Min_cycle;Max_cycle;Signal;HPM_P1;HPM_P2
2022/11/28 00:02:11;;;;;;;;;;;;;;;;;;4911933;29;19918;-60
2022/11/28 00:04:36;;;;;;;;;;;;;;;;;;4894477;28;19973;-60
2022/11/28 00:07:04;;;;;;;;;;;;;;;;;;4908559;29;20457;-60
2022/11/28 00:09:29;;;;;;;;;;;;;;;;;;4910500;28;19930;-61
2022/11/28 00:11:55;;;;;;;;;;;;;;;;;;4907098;29;19922;-60
2022/11/28 00:14:24;;;;;;;;;;;;;;;;;;4927173;28;20405;-58
2022/11/28 00:16:54;;;;;;;;;;;;;;;;;;4911436;29;19922;-60
2022/11/28 00:19:22;;;;;;;;;;;;;;;;;;4928042;28;20831;-60
2022/11/28 00:21:48;;;;;;;;;;;;;;;;;;4907393;29;19923;-58
2022/11/28 00:24:13;;;;;;;;;;;;;;;;;;4923716;28;19922;-58
2022/11/28 00:26:39;;;;;;;;;;;;;;;;;;4928091;28;20017;-60
2022/11/28 00:29:07;;;;;;;;;;;;;;;;;;4926622;28;19922;-60
2022/11/28 00:31:35;;;;;;;;;;;;;;;;;;4927872;28;20052;-58
2022/11/28 00:34:03;;;;;;;;;;;;;;;;;;4928143;29;19929;-58
2022/11/28 00:36:28;;;;;;;;;;;;;;;;;;4910580;28;20480;-58
2022/11/28 00:38:56;;;;;;;;;;;;;;;;;;4909918;29;19930;-58
2022/11/28 00:41:24;;;;;;;;;;;;;;;;;;4926116;28;19923;-59
2022/11/28 00:43:49;;;;;;;;;;;;;;;;;;4909223;29;20442;-60
2022/11/28 00:46:20;;;;;;;;;;;;;;;;;;4910118;29;19922;-59
2022/11/28 00:48:48;;;;;;;;;;;;;;;;;;4926385;29;19925;-59
2022/11/28 00:51:15;;;;;;;;;;;;;;;;;;4923290;28;19922;-60
2022/11/28 00:53:41;;;;;;;;;;;;;;;;;;4909202;29;19922;-60
2022/11/28 00:56:06;;;;;;;;;;;;;;;;;;4908717;29;20838;-60
2022/11/28 00:58:31;;;;;;;;;;;;;;;;;;4907844;29;20002;-60
2022/11/28 01:01:00;;;;;;;;;;;;;;;;;;4925006;28;19923;-60
2022/11/28 01:03:27;;;;;;;;;;;;;;;;;;4893078;29;19930;-61
2022/11/28 01:05:52;;;;;;;;;;;;;;;;;;4923609;29;19962;-60
2022/11/28 01:08:19;;;;;;;;;;;;;;;;;;4925292;28;20432;-60
2022/11/28 01:10:47;;;;;;;;;;;;;;;;;;4925254;28;19934;-60
2022/11/28 01:13:12;;;;;;;;;;;;;;;;;;4925345;28;19934;-61
2022/11/28 01:15:38;;;;;;;;;;;;;;;;;;4927380;28;19923;-61
2022/11/28 01:18:04;;;;;;;;;;;;;;;;;;4925303;28;19933;-60
2022/11/28 01:20:34;;;;;;;;;;;;;;;;;;4903148;28;19922;-59
2022/11/28 01:23:00;;;;;;;;;;;;;;;;;;4904365;29;19953;-59
2022/11/28 01:25:28;;;;;;;;;;;;;;;;;;4905693;29;19922;-59
2022/11/28 01:27:53;;;;;;;;;;;;;;;;;;4904250;29;20484;-59
2022/11/28 01:30:18;;;;;;;;;;;;;;;;;;4925315;28;19942;-59
2022/11/28 01:32:48;;;;;;;;;;;;;;;;;;4925829;28;21484;-59
2022/11/28 01:35:13;;;;;;;;;;;;;;;;;;4906542;28;21693;-61
2022/11/28 01:37:38;;;;;;;;;;;;;;;;;;4925755;29;19965;-59
2022/11/28 01:40:06;;;;;;;;;;;;;;;;;;4907664;29;19929;-59
2022/11/28 01:42:34;;;;;;;;;;;;;;;;;;4890541;29;19922;-60
2022/11/28 01:45:02;;;;;;;;;;;;;;;;;;4905867;29;20042;-60
2022/11/28 01:47:27;;;;;;;;;;;;;;;;;;4902728;29;19918;-60
2022/11/28 01:49:53;;;;;;;;;;;;;;;;;;4924537;28;19937;-60
2022/11/28 01:52:21;;;;;;;;;;;;;;;;;;4923183;28;19926;-60
2022/11/28 01:54:48;;;;;;;;;;;;;;;;;;4924564;28;20077;-60
2022/11/28 01:57:14;;;;;;;;;;;;;;;;;;4924642;28;19927;-60
2022/11/28 01:59:42;;;;;;;;;;;;;;;;;;4924263;28;19922;-60
2022/11/28 02:02:07;;;;;;;;;;;;;;;;;;4905504;29;19945;-61
2022/11/28 02:04:33;;;;;;;;;;;;;;;;;;4925176;28;20418;-59
2022/11/28 02:09:18;;;;;;;;;;;;;;;;;;5053401;27;19935;-62
2022/11/28 02:11:44;;;;;;;;;;;;;;;;;;5062202;28;20347;-61
2022/11/28 02:14:10;;;;;;;;;;;;;;;;;;5044995;28;20534;-61
2022/11/28 02:16:38;;;;;;;;;;;;;;;;;;5048560;28;19921;-61
2022/11/28 02:19:04;;;;;;;;;;;;;;;;;;5047147;28;19994;-61
2022/11/28 02:21:29;;;;;;;;;;;;;;;;;;5046767;28;19931;-60
2022/11/28 02:23:54;;;;;;;;;;;;;;;;;;5030381;28;19921;-61
2022/11/28 02:26:20;;;;;;;;;;;;;;;;;;5044876;28;19963;-62
2022/11/28 02:28:48;;;;;;;;;;;;;;;;;;5045521;28;19982;-61
2022/11/28 02:31:13;;;;;;;;;;;;;;;;;;5062041;28;19968;-60
2022/11/28 02:33:39;;;;;;;;;;;;;;;;;;5044362;28;19931;-60
2022/11/28 02:36:04;;;;;;;;;;;;;;;;;;5062913;28;20424;-61
2022/11/28 02:41:45;;;;;;;;;;;;;;;;;;5047763;28;20023;-60
2022/11/28 02:44:10;;;;;;;;;;;;;;;;;;5047057;28;19920;-60
2022/11/28 02:46:38;;;;;;;;;;;;;;;;;;5045119;28;19921;-60
2022/11/28 02:49:06;;;;;;;;;;;;;;;;;;5048724;28;19924;-60
2022/11/28 02:51:34;;;;;;;;;;;;;;;;;;5026674;28;20082;-61
2022/11/28 02:53:59;;;;;;;;;;;;;;;;;;5046610;28;19928;-60
2022/11/28 02:56:24;;;;;;;;;;;;;;;;;;5044603;28;19925;-59
2022/11/28 02:58:50;;;;;;;;;;;;;;;;;;5047193;28;20745;-58
2022/11/28 03:01:16;;;;;;;;;;;;;;;;;;5036147;28;20018;-59
2022/11/28 03:03:45;;;;;;;;;;;;;;;;;;5037794;28;19979;-58
2022/11/28 03:06:10;;;;;;;;;;;;;;;;;;5046932;28;20390;-58
2022/11/28 03:08:36;;;;;;;;;;;;;;;;;;5047423;28;20030;-58
2022/11/28 03:11:03;;;;;;;;;;;;;;;;;;5040521;28;20287;-58
2022/11/28 03:13:31;;;;;;;;;;;;;;;;;;5046779;28;20542;-59
2022/11/28 03:15:59;;;;;;;;;;;;;;;;;;5045051;28;20082;-58
2022/11/28 03:18:26;;;;;;;;;;;;;;;;;;5043771;28;19921;-59
2022/11/28 03:20:54;;;;;;;;;;;;;;;;;;5028141;28;19916;-60
2022/11/28 03:23:22;;;;;;;;;;;;;;;;;;5034165;28;20340;-58
2022/11/28 03:25:47;;;;;;;;;;;;;;;;;;5032997;28;20526;-59
2022/11/28 03:28:13;;;;;;;;;;;;;;;;;;5032160;28;19924;-58
2022/11/28 03:30:38;;;;;;;;;;;;;;;;;;5031836;28;20374;-61
2022/11/28 03:33:03;;;;;;;;;;;;;;;;;;5033374;28;19916;-59
2022/11/28 03:35:29;;;;;;;;;;;;;;;;;;5029388;28;20387;-58
2022/11/28 03:37:54;;;;;;;;;;;;;;;;;;5033542;28;19921;-58
2022/11/28 03:40:22;;;;;;;;;;;;;;;;;;5032821;28;19928;-58
2022/11/28 03:42:48;;;;;;;;;;;;;;;;;;5034016;28;19916;-58
2022/11/28 03:45:15;;;;;;;;;;;;;;;;;;5034237;28;20768;-58
2022/11/28 03:47:40;;;;;;;;;;;;;;;;;;5016633;28;19931;-58
2022/11/28 03:50:05;;;;;;;;;;;;;;;;;;5031313;28;19956;-60
2022/11/28 03:52:31;;;;;;;;;;;;;;;;;;5031750;28;19921;-60
2022/11/28 03:54:58;;;;;;;;;;;;;;;;;;5032141;28;19917;-59
2022/11/28 03:57:23;;;;;;;;;;;;;;;;;;5034191;28;19921;-59
2022/11/28 03:59:49;;;;;;;;;;;;;;;;;;5026874;28;19928;-59
2022/11/28 04:02:15;;;;;;;;;;;;;;;;;;5033639;28;20029;-60
2022/11/28 04:04:41;;;;;;;;;;;;;;;;;;5031271;28;22323;-59
2022/11/28 04:07:08;;;;;;;;;;;;;;;;;;5031547;28;19921;-60
2022/11/28 04:09:33;;;;;;;;;;;;;;;;;;5013816;28;20021;-59
2022/11/28 04:12:04;;;;;;;;;;;;;;;;;;5029715;28;19924;-59
2022/11/28 04:14:31;;;;;;;;;;;;;;;;;;5029088;28;19948;-59
2022/11/28 04:16:59;;;;;;;;;;;;;;;;;;5030320;28;20421;-59
2022/11/28 04:19:24;;;;;;;;;;;;;;;;;;5018652;28;19986;-59
2022/11/28 04:21:53;;;;;;;;;;;;;;;;;;5030667;28;20516;-59
2022/11/28 04:24:20;;;;;;;;;;;;;;;;;;5032458;28;20552;-59
2022/11/28 04:26:48;;;;;;;;;;;;;;;;;;5030777;28;19994;-59
2022/11/28 04:29:13;;;;;;;;;;;;;;;;;;5034975;28;20021;-59
2022/11/28 04:31:39;;;;;;;;;;;;;;;;;;5029580;28;20432;-59
2022/11/28 04:34:04;;;;;;;;;;;;;;;;;;5031247;28;19917;-59
2022/11/28 04:36:32;;;;;;;;;;;;;;;;;;5030824;28;19916;-59
2022/11/28 04:39:02;;;;;;;;;;;;;;;;;;5029422;28;19952;-59
2022/11/28 04:41:30;;;;;;;;;;;;;;;;;;5029504;28;19916;-59
2022/11/28 04:43:56;;;;;;;;;;;;;;;;;;5031904;28;20383;-59
2022/11/28 04:46:25;;;;;;;;;;;;;;;;;;5033966;28;20019;-59
2022/11/28 04:48:51;;;;;;;;;;;;;;;;;;5035888;28;20011;-59
2022/11/28 04:51:16;;;;;;;;;;;;;;;;;;5012657;28;20974;-59
2022/11/28 04:53:41;;;;;;;;;;;;;;;;;;5030635;28;20054;-59
2022/11/28 04:56:09;;;;;;;;;;;;;;;;;;5031238;28;20024;-59
2022/11/28 04:58:37;;;;;;;;;;;;;;;;;;5029940;28;19976;-59
2022/11/28 05:01:02;;;;;;;;;;;;;;;;;;5031327;28;19928;-59
2022/11/28 05:03:27;;;;;;;;;;;;;;;;;;5030977;28;20307;-59
2022/11/28 05:05:55;;;;;;;;;;;;;;;;;;5031505;28;19917;-59
2022/11/28 05:08:25;;;;;;;;;;;;;;;;;;5027815;28;19921;-59
2022/11/28 05:10:53;;;;;;;;;;;;;;;;;;5032359;28;20089;-59
2022/11/28 05:13:20;;;;;;;;;;;;;;;;;;5029919;28;20060;-59
2022/11/28 05:15:45;;;;;;;;;;;;;;;;;;5029325;28;20387;-59
2022/11/28 05:18:13;;;;;;;;;;;;;;;;;;5016945;28;19964;-59
2022/11/28 05:20:40;;;;;;;;;;;;;;;;;;5029103;28;20018;-59
2022/11/28 05:23:06;;;;;;;;;;;;;;;;;;5029932;28;19917;-59
2022/11/28 05:25:32;;;;;;;;;;;;;;;;;;5030685;28;20528;-59
2022/11/28 05:27:57;;;;;;;;;;;;;;;;;;5013128;28;19928;-61
2022/11/28 05:30:22;;;;;;;;;;;;;;;;;;5045250;28;19979;-59
2022/11/28 05:32:47;;;;;;;;;;;;;;;;;;5029356;28;20105;-59
2022/11/28 05:35:13;;;;;;;;;;;;;;;;;;5029794;28;19920;-59
2022/11/28 05:37:38;;;;;;;;;;;;;;;;;;5017316;28;19924;-59
2022/11/28 05:40:04;;;;;;;;;;;;;;;;;;5030649;28;20027;-59
2022/11/28 05:42:34;;;;;;;;;;;;;;;;;;5028966;28;19925;-59
2022/11/28 05:44:59;;;;;;;;;;;;;;;;;;5022230;28;22103;-59
2022/11/28 05:47:27;;;;;;;;;;;;;;;;;;5029874;28;20008;-60
2022/11/28 05:49:52;;;;;;;;;;;;;;;;;;5045110;28;20082;-59
2022/11/28 05:52:17;;;;;;;;;;;;;;;;;;5012349;28;19921;-59
2022/11/28 05:54:45;;;;;;;;;;;;;;;;;;5027747;28;19921;-59
2022/11/28 05:57:11;;;;;;;;;;;;;;;;;;5031593;28;19921;-60
2022/11/28 05:59:37;;;;;;;;;;;;;;;;;;5027880;28;20304;-60
2022/11/28 06:02:02;;;;;;;;;;;;;;;;;;5028754;28;19921;-59
2022/11/28 06:04:30;;;;;;;;;;;;;;;;;;5028643;28;19921;-59
2022/11/28 06:06:58;;;;;;;;;;;;;;;;;;5030854;28;19980;-59
2022/11/28 06:09:26;;;;;;;;;;;;;;;;;;5029767;28;20620;-60
2022/11/28 06:11:56;;;;;;;;;;;;;;;;;;5028369;28;21453;-60
2022/11/28 06:14:21;;;;;;;;;;;;;;;;;;5043839;28;20007;-60
2022/11/28 06:16:54;;;;;;;;;;;;;;;;;;5027347;28;20237;-59
2022/11/28 06:19:19;;;;;;;;;;;;;;;;;;5029152;28;19928;-59
2022/11/28 06:21:45;;;;;;;;;;;;;;;;;;5030307;28;19925;-59
2022/11/28 06:24:13;;;;;;;;;;;;;;;;;;5029887;28;20017;-59
2022/11/28 06:26:38;;;;;;;;;;;;;;;;;;5029423;28;19920;-60
2022/11/28 06:29:05;;;;;;;;;;;;;;;;;;5027973;28;20055;-59
2022/11/28 06:31:33;;;;;;;;;;;;;;;;;;5014456;28;19920;-59
2022/11/28 06:34:01;;;;;;;;;;;;;;;;;;5029222;28;20391;-58
2022/11/28 06:36:29;;;;;;;;;;;;;;;;;;5012629;28;19970;-59
2022/11/28 06:38:57;;;;;;;;;;;;;;;;;;5028295;28;20175;-58
2022/11/28 06:41:23;;;;;;;;;;;;;;;;;;5012657;28;21687;-58
2022/11/28 06:43:48;;;;;;;;;;;;;;;;;;5043383;28;20384;-59
2022/11/28 06:46:15;;;;;;;;;;;;;;;;;;5028869;28;19955;-59
2022/11/28 06:48:45;;;;;;;;;;;;;;;;;;5028400;28;20071;-59
2022/11/28 06:51:16;;;;;;;;;;;;;;;;;;5026606;28;19924;-59
2022/11/28 06:53:46;;;;;;;;;;;;;;;;;;5029756;28;19917;-59
2022/11/28 06:56:12;;;;;;;;;;;;;;;;;;5018461;28;19921;-59
2022/11/28 06:58:38;;;;;;;;;;;;;;;;;;5009884;28;19932;-59
2022/11/28 07:01:05;;;;;;;;;;;;;;;;;;5031914;28;20406;-59
2022/11/28 07:03:33;;;;;;;;;;;;;;;;;;5035101;28;20109;-60
2022/11/28 07:06:01;;;;;;;;;;;;;;;;;;5033346;28;19917;-60
2022/11/28 07:08:26;;;;;;;;;;;;;;;;;;5030058;28;21085;-59
2022/11/28 07:10:51;;;;;;;;;;;;;;;;;;5032670;28;21418;-59
2022/11/28 07:13:19;;;;;;;;;;;;;;;;;;5031756;28;20816;-59
2022/11/28 07:15:47;;;;;;;;;;;;;;;;;;5047970;28;19920;-59
2022/11/28 07:18:18;;;;;;;;;;;;;;;;;;5033550;28;19947;-59
2022/11/28 07:20:43;;;;;;;;;;;;;;;;;;5030111;28;20461;-59
2022/11/28 07:23:11;;;;;;;;;;;;;;;;;;5031348;28;20016;-58
2022/11/28 07:25:39;;;;;;;;;;;;;;;;;;5034766;28;19981;-58
2022/11/28 07:28:07;;;;;;;;;;;;;;;;;;5030012;28;20006;-58
2022/11/28 07:30:35;;;;;;;;;;;;;;;;;;5030888;28;20372;-58
2022/11/28 07:33:02;;;;;;;;;;;;;;;;;;5012309;28;20467;-59
2022/11/28 07:35:28;;;;;;;;;;;;;;;;;;5031944;28;19956;-59
2022/11/28 07:37:55;;;;;;;;;;;;;;;;;;5032811;28;20028;-59
2022/11/28 07:40:23;;;;;;;;;;;;;;;;;;5031294;28;19932;-59
2022/11/28 07:42:51;;;;;;;;;;;;;;;;;;5032067;28;21407;-59
2022/11/28 07:45:16;;;;;;;;;;;;;;;;;;5045734;28;19924;-59
2022/11/28 07:47:41;;;;;;;;;;;;;;;;;;5038232;28;20859;-59
2022/11/28 07:50:09;;;;;;;;;;;;;;;;;;5032210;28;20038;-59
2022/11/28 07:52:37;;;;;;;;;;;;;;;;;;5030934;28;19931;-59
2022/11/28 07:55:02;;;;;;;;;;;;;;;;;;5046016;28;19928;-59
2022/11/28 07:57:30;;;;;;;;;;;;;;;;;;5032340;28;19923;-59
2022/11/28 07:59:58;;;;;;;;;;;;;;;;;;5030902;28;20504;-60
2022/11/28 08:02:31;;;;;;;;;;;;;;;;;;5029380;28;19921;-59
2022/11/28 08:04:57;;;;;;;;;;;;;;;;;;5031493;28;19924;-59
2022/11/28 08:07:24;;;;;;;;;;;;;;;;;;5031901;28;19927;-61
2022/11/28 08:09:54;;;;;;;;;;;;;;;;;;5013649;28;20440;-59
2022/11/28 08:12:24;;;;;;;;;;;;;;;;;;5013693;28;19928;-59
2022/11/28 08:14:50;;;;;;;;;;;;;;;;;;5031923;28;19974;-58
2022/11/28 08:17:20;;;;;;;;;;;;;;;;;;5030961;28;20011;-58
2022/11/28 08:19:46;;;;;;;;;;;;;;;;;;5031084;28;19920;-59
2022/11/28 08:22:11;;;;;;;;;;;;;;;;;;5029540;28;20261;-59
2022/11/28 08:24:36;;;;;;;;;;;;;;;;;;5044833;28;20479;-58
2022/11/28 08:27:07;;;;;;;;;;;;;;;;;;5028907;28;20023;-59
2022/11/28 08:29:34;;;;;;;;;;;;;;;;;;5044066;28;19933;-59
2022/11/28 08:32:04;;;;;;;;;;;;;;;;;;5031099;28;20344;-58
2022/11/28 08:34:32;;;;;;;;;;;;;;;;;;5029133;28;20106;-58
2022/11/28 08:36:57;;;;;;;;;;;;;;;;;;5030174;28;19920;-58
2022/11/28 08:39:23;;;;;;;;;;;;;;;;;;5046403;28;20762;-59
2022/11/28 08:41:59;;;;;;;;;;;;;;;;;;5029127;28;19931;-58
2022/11/28 08:44:26;;;;;;;;;;;;;;;;;;5033393;28;19917;-58
2022/11/28 08:46:52;;;;;;;;;;;;;;;;;;5030345;28;20187;-58
2022/11/28 08:49:22;;;;;;;;;;;;;;;;;;5031123;28;20602;-59
2022/11/28 08:51:49;;;;;;;;;;;;;;;;;;5030779;28;19932;-58
2022/11/28 08:54:17;;;;;;;;;;;;;;;;;;5030419;28;19916;-58
2022/11/28 08:56:45;;;;;;;;;;;;;;;;;;5010997;28;19995;-59
2022/11/28 08:59:13;;;;;;;;;;;;;;;;;;5032287;28;20427;-59
2022/11/28 09:01:39;;;;;;;;;;;;;;;;;;5030435;28;20814;-59
2022/11/28 09:04:09;;;;;;;;;;;;;;;;;;5032158;28;20016;-59
2022/11/28 09:06:37;;;;;;;;;;;;;;;;;;5028313;28;19974;-59
2022/11/28 09:09:02;;;;;;;;;;;;;;;;;;5027725;28;19936;-59
2022/11/28 09:11:32;;;;;;;;;;;;;;;;;;5029273;28;20495;-58
2022/11/28 09:14:01;;;;;;;;;;;;;;;;;;5029059;28;19921;-59
2022/11/28 09:16:26;;;;;;;;;;;;;;;;;;5031502;28;20081;-59
2022/11/28 09:18:52;;;;;;;;;;;;;;;;;;5029950;28;19925;-59
2022/11/28 09:21:17;;;;;;;;;;;;;;;;;;5030714;28;19916;-59
2022/11/28 09:23:42;;;;;;;;;;;;;;;;;;5029673;28;19920;-59
2022/11/28 09:28:52;;;;;;;;;;;;;;;;;;5028509;28;20337;-60
2022/11/28 09:31:21;;;;;;;;;;;;;;;;;;5028606;28;19927;-59
2022/11/28 09:33:48;;;;;;;;;;;;;;;;;;5031489;28;21465;-59
2022/11/28 09:36:17;;;;;;;;;;;;;;;;;;5030905;28;20874;-60
2022/11/28 09:38:43;;;;;;;;;;;;;;;;;;5028993;28;19916;-59
2022/11/28 09:41:08;;;;;;;;;;;;;;;;;;5033535;28;19920;-59
2022/11/28 09:43:33;;;;;;;;;;;;;;;;;;5029207;28;19923;-59
2022/11/28 09:45:59;;;;;;;;;;;;;;;;;;5029499;28;19927;-59
2022/11/28 09:48:25;;;;;;;;;;;;;;;;;;5027500;28;19920;-59
2022/11/28 09:50:50;;;;;;;;;;;;;;;;;;5027820;28;20017;-59
2022/11/28 09:53:16;;;;;;;;;;;;;;;;;;5044379;28;19989;-59
2022/11/28 09:55:41;;;;;;;;;;;;;;;;;;5028362;28;19927;-60
2022/11/28 09:58:07;;;;;;;;;;;;;;;;;;5030056;28;19931;-60
2022/11/28 10:00:32;;;;;;;;;;;;;;;;;;5016428;28;19916;-60
2022/11/28 10:02:58;;;;;;;;;;;;;;;;;;5028852;28;20334;-58
2022/11/28 10:08:39;;;;;;;;;;;;;;;;;;5027238;28;19958;-59
2022/11/28 10:11:07;;;;;;;;;;;;;;;;;;5044868;28;20003;-59
2022/11/28 10:13:38;;;;;;;;;;;;;;;;;;5028284;28;19920;-58
2022/11/28 10:16:03;;;;;;;;;;;;;;;;;;5029352;28;19920;-60
2022/11/28 10:18:32;;;;;;;;;;;;;;;;;;5029732;28;19979;-60
2022/11/28 10:20:57;;;;;;;;;;;;;;;;;;5029990;28;20354;-60
2022/11/28 10:23:24;;;;;;;;;;;;;;;;;;5029587;28;19925;-58
2022/11/28 10:25:52;;;;;;;;;;;;;;;;;;5032351;28;19917;-59
2022/11/28 10:28:20;;;;;;;;;;;;;;;;;;5028150;28;20093;-59
2022/11/28 10:30:47;;;;;;;;;;;;;;;;;;5033309;28;20402;-58
2022/11/28 10:33:12;;;;;;;;;;;;;;;;;;5032221;28;20091;-60
2022/11/28 10:35:38;;;;;;;;;;;;;;;;;;5032205;28;19924;-59
2022/11/28 10:38:06;;;;;;;;;;;;;;;;;;5034316;28;20451;-59
2022/11/28 10:40:31;;;;;;;;;;;;;;;;;;5032417;28;20019;-59
2022/11/28 10:43:00;;;;;;;;;;;;;;;;;;5034229;28;19924;-59
2022/11/28 10:45:27;;;;;;;;;;;;;;;;;;5049007;28;19983;-59
2022/11/28 10:47:55;;;;;;;;;;;;;;;;;;5031927;28;19925;-60
2022/11/28 10:50:29;;;;;;;;;;;;;;;;;;5032069;28;21891;-60
2022/11/28 10:52:57;;;;;;;;;;;;;;;;;;5033459;28;19916;-60
2022/11/28 10:55:22;;;;;;;;;;;;;;;;;;5032847;28;20358;-60
2022/11/28 10:57:50;;;;;;;;;;;;;;;;;;5047483;28;20371;-59
2022/11/28 11:00:18;;;;;;;;;;;;;;;;;;5033455;28;19927;-59
2022/11/28 11:02:43;;;;;;;;;;;;;;;;;;5031477;28;21627;-58
2022/11/28 11:05:09;;;;;;;;;;;;;;;;;;5031803;28;20227;-59
2022/11/28 11:07:34;;;;;;;;;;;;;;;;;;5047374;28;19920;-59
2022/11/28 11:10:02;;;;;;;;;;;;;;;;;;5030814;28;20501;-59
2022/11/28 11:12:30;;;;;;;;;;;;;;;;;;5032820;28;20653;-59
2022/11/28 11:14:57;;;;;;;;;;;;;;;;;;5033323;28;19933;-58
2022/11/28 11:17:25;;;;;;;;;;;;;;;;;;5034719;28;20294;-58
2022/11/28 11:19:52;;;;;;;;;;;;;;;;;;5015906;28;20313;-58
2022/11/28 11:22:18;;;;;;;;;;;;;;;;;;5032324;28;20624;-59
2022/11/28 11:25:04;;;;;;;;;;;;;;;;;;5030502;28;21576;-59
2022/11/28 11:27:32;;;;;;;;;;;;;;;;;;5023870;28;19925;-60
2022/11/28 11:30:00;;;;;;;;;;;;;;;;;;5035179;28;19935;-60
2022/11/28 11:32:29;;;;;;;;;;;;;;;;;;5032420;28;19917;-60
2022/11/28 11:34:55;;;;;;;;;;;;;;;;;;5031640;28;19916;-60
2022/11/28 11:37:22;;;;;;;;;;;;;;;;;;5031371;28;20443;-59
2022/11/28 11:39:53;;;;;;;;;;;;;;;;;;5030134;28;20292;-58
2022/11/28 11:42:23;;;;;;;;;;;;;;;;;;5029391;28;20016;-59
2022/11/28 11:44:51;;;;;;;;;;;;;;;;;;5032811;28;20027;-60
2022/11/28 11:47:19;;;;;;;;;;;;;;;;;;5030193;28;19917;-59
2022/11/28 11:49:49;;;;;;;;;;;;;;;;;;5031917;28;19921;-59
2022/11/28 11:52:17;;;;;;;;;;;;;;;;;;5032931;28;19916;-59
2022/11/28 11:54:42;;;;;;;;;;;;;;;;;;5028391;28;19955;-60
2022/11/28 11:57:08;;;;;;;;;;;;;;;;;;5032285;28;20450;-59
2022/11/28 11:59:33;;;;;;;;;;;;;;;;;;5032099;28;20292;-60
2022/11/28 12:05:14;;;;;;;;;;;;;;;;;;5032415;28;19946;-59
2022/11/28 12:07:45;;;;;;;;;;;;;;;;;;5034192;28;19920;-59
2022/11/28 12:10:10;;;;;;;;;;;;;;;;;;5031075;28;20544;-58
2022/11/28 12:12:35;;;;;;;;;;;;;;;;;;5029901;28;19916;-58
2022/11/28 12:15:00;;;;;;;;;;;;;;;;;;5032710;28;19932;-59
2022/11/28 12:17:28;;;;;;;;;;;;;;;;;;5030822;28;20297;-59
2022/11/28 12:19:53;;;;;;;;;;;;;;;;;;5030065;28;19920;-59
2022/11/28 12:22:19;;;;;;;;;;;;;;;;;;5032136;28;20162;-59
2022/11/28 12:24:46;;;;;;;;;;;;;;;;;;5012183;28;20378;-60
2022/11/28 12:27:14;;;;;;;;;;;;;;;;;;5015475;28;20059;-61
2022/11/28 12:29:40;;;;;;;;;;;;;;;;;;5029194;28;20539;-60
2022/11/28 12:32:05;;;;;;;;;;;;;;;;;;5031351;28;20011;-60
2022/11/28 12:34:31;;;;;;;;;;;;;;;;;;5007794;28;20417;-60
2022/11/28 12:36:56;;;;;;;;;;;;;;;;;;5029443;28;19928;-58
2022/11/28 12:39:24;;;;;;;;;;;;;;;;;;5031741;28;20355;-60
2022/11/28 12:41:50;;;;;;;;;;;;;;;;;;5033974;28;19952;-60
2022/11/28 12:44:15;;;;;;;;;;;;;;;;;;5045692;28;19920;-60
2022/11/28 12:49:56;;;;;;;;;;;;;;;;;;5030060;28;19967;-60
2022/11/28 12:52:22;;;;;;;;;;;;;;;;;;5029540;28;20051;-60
2022/11/28 12:54:50;;;;;;;;;;;;;;;;;;5030594;28;19956;-60
2022/11/28 12:57:15;;;;;;;;;;;;;;;;;;5029994;28;20352;-59
2022/11/28 12:59:43;;;;;;;;;;;;;;;;;;5030737;28;20028;-59
2022/11/28 13:02:08;;;;;;;;;;;;;;;;;;5030757;28;20067;-59
2022/11/28 13:04:36;;;;;;;;;;;;;;;;;;5029176;28;20054;-59
2022/11/28 13:07:02;;;;;;;;;;;;;;;;;;5028624;28;19920;-58
2022/11/28 13:09:27;;;;;;;;;;;;;;;;;;5030616;28;20651;-58
2022/11/28 13:11:55;;;;;;;;;;;;;;;;;;5015610;28;20177;-59
2022/11/28 13:14:20;;;;;;;;;;;;;;;;;;5027223;28;20039;-59
2022/11/28 13:16:51;;;;;;;;;;;;;;;;;;5043541;28;20011;-59
2022/11/28 13:19:16;;;;;;;;;;;;;;;;;;5029853;28;19924;-59
2022/11/28 13:21:41;;;;;;;;;;;;;;;;;;5032729;28;19921;-59
2022/11/28 13:24:07;;;;;;;;;;;;;;;;;;5030738;28;19986;-59
2022/11/28 13:26:32;;;;;;;;;;;;;;;;;;5029146;28;19952;-59
2022/11/28 13:29:00;;;;;;;;;;;;;;;;;;5030416;28;19933;-59
2022/11/28 13:31:26;;;;;;;;;;;;;;;;;;5028040;28;19990;-59
2022/11/28 13:33:53;;;;;;;;;;;;;;;;;;5028215;28;19927;-59
2022/11/28 13:36:21;;;;;;;;;;;;;;;;;;5028872;28;19923;-59
2022/11/28 13:38:49;;;;;;;;;;;;;;;;;;5030381;28;20303;-58
2022/11/28 13:41:14;;;;;;;;;;;;;;;;;;5029659;28;19916;-59
2022/11/28 13:43:40;;;;;;;;;;;;;;;;;;5027509;28;19999;-59
2022/11/28 13:46:05;;;;;;;;;;;;;;;;;;5012449;28;19938;-59
2022/11/28 13:48:33;;;;;;;;;;;;;;;;;;5043973;28;19925;-59
2022/11/28 13:51:00;;;;;;;;;;;;;;;;;;5031358;28;19924;-59
2022/11/28 13:53:26;;;;;;;;;;;;;;;;;;5030278;28;19921;-58
2022/11/28 13:55:54;;;;;;;;;;;;;;;;;;5029265;28;19921;-59
2022/11/28 13:58:19;;;;;;;;;;;;;;;;;;5030043;28;19924;-59
2022/11/28 14:00:44;;;;;;;;;;;;;;;;;;5014206;28;20375;-59
2022/11/28 14:03:12;;;;;;;;;;;;;;;;;;5030711;28;19921;-59
2022/11/28 14:05:42;;;;;;;;;;;;;;;;;;5028286;28;19921;-60
2022/11/28 14:08:12;;;;;;;;;;;;;;;;;;5013499;28;19929;-59
2022/11/28 14:13:25;;;;;;;;;;;;;;;;;;5028509;28;19920;-60
2022/11/28 14:15:53;;;;;;;;;;;;;;;;;;5028490;28;19940;-60
2022/11/28 14:18:23;;;;;;;;;;;;;;;;;;5028279;28;19924;-60
2022/11/28 14:20:53;;;;;;;;;;;;;;;;;;5028875;28;20024;-59
2022/11/28 14:23:21;;;;;;;;;;;;;;;;;;5026777;28;20332;-60
2022/11/28 14:25:49;;;;;;;;;;;;;;;;;;5030886;28;19913;-61
2022/11/28 14:28:17;;;;;;;;;;;;;;;;;;5013150;28;19929;-59
2022/11/28 14:30:45;;;;;;;;;;;;;;;;;;5029426;28;19921;-60
2022/11/28 14:33:15;;;;;;;;;;;;;;;;;;5027955;28;20015;-60
2022/11/28 14:35:43;;;;;;;;;;;;;;;;;;5026874;28;19935;-60
2022/11/28 14:38:11;;;;;;;;;;;;;;;;;;5029795;28;19932;-61
2022/11/28 14:40:39;;;;;;;;;;;;;;;;;;5028508;28;19920;-60
2022/11/28 14:43:05;;;;;;;;;;;;;;;;;;5029691;28;20010;-60
2022/11/28 14:45:33;;;;;;;;;;;;;;;;;;5028410;28;19924;-59
2022/11/28 14:47:59;;;;;;;;;;;;;;;;;;5029032;28;20849;-59
2022/11/28 14:50:24;;;;;;;;;;;;;;;;;;5026418;28;21788;-59
2022/11/28 14:52:51;;;;;;;;;;;;;;;;;;5029190;28;20549;-59
2022/11/28 14:55:16;;;;;;;;;;;;;;;;;;5029856;28;21626;-59
2022/11/28 14:57:42;;;;;;;;;;;;;;;;;;5027312;28;20435;-59
2022/11/28 15:00:10;;;;;;;;;;;;;;;;;;5029654;28;20400;-59
2022/11/28 15:02:40;;;;;;;;;;;;;;;;;;5028251;28;20580;-59
2022/11/28 15:05:05;;;;;;;;;;;;;;;;;;5025479;28;19932;-61
2022/11/28 15:07:30;;;;;;;;;;;;;;;;;;5027429;28;19917;-60
2022/11/28 15:09:59;;;;;;;;;;;;;;;;;;5026088;28;19916;-59
2022/11/28 15:12:24;;;;;;;;;;;;;;;;;;5026616;28;19963;-60
2022/11/28 15:14:49;;;;;;;;;;;;;;;;;;5027076;28;20016;-60
2022/11/28 15:17:14;;;;;;;;;;;;;;;;;;5032190;28;19928;-59
2022/11/28 15:19:42;;;;;;;;;;;;;;;;;;5046288;28;21567;-59
2022/11/28 15:22:07;;;;;;;;;;;;;;;;;;5031701;28;20233;-59
2022/11/28 15:27:54;;;;;;;;;;;;;;;;;;5031649;28;19979;-61
2022/11/28 15:30:25;;;;;;;;;;;;;;;;;;5031895;28;19920;-59
2022/11/28 15:32:52;;;;;;;;;;;;;;;;;;5031774;28;19921;-59
2022/11/28 15:35:18;;;;;;;;;;;;;;;;;;5032585;28;20386;-59
2022/11/28 15:37:45;;;;;;;;;;;;;;;;;;5032226;28;20550;-59
2022/11/28 15:40:15;;;;;;;;;;;;;;;;;;5030874;28;20534;-59
2022/11/28 15:42:43;;;;;;;;;;;;;;;;;;5035757;28;20672;-59
2022/11/28 15:45:11;;;;;;;;;;;;;;;;;;5031491;28;20437;-59
2022/11/28 15:47:37;;;;;;;;;;;;;;;;;;5032123;28;19924;-59
2022/11/28 15:50:04;;;;;;;;;;;;;;;;;;5029860;28;20502;-59
2022/11/28 15:52:30;;;;;;;;;;;;;;;;;;5031590;28;19956;-59
2022/11/28 15:54:56;;;;;;;;;;;;;;;;;;5029374;28;19921;-61
2022/11/28 15:57:27;;;;;;;;;;;;;;;;;;5033106;28;20509;-60
2022/11/28 15:59:52;;;;;;;;;;;;;;;;;;5016763;28;19971;-59
2022/11/28 16:02:21;;;;;;;;;;;;;;;;;;5032231;28;21565;-60
2022/11/28 16:04:47;;;;;;;;;;;;;;;;;;5045427;28;19951;-60
2022/11/28 16:07:14;;;;;;;;;;;;;;;;;;5032037;28;20391;-60
2022/11/28 16:09:42;;;;;;;;;;;;;;;;;;5031156;28;19920;-60
2022/11/28 16:12:08;;;;;;;;;;;;;;;;;;5012972;28;20067;-60
2022/11/28 16:14:33;;;;;;;;;;;;;;;;;;5045825;28;20226;-60
2022/11/28 16:17:02;;;;;;;;;;;;;;;;;;5031111;28;20158;-60
2022/11/28 16:19:27;;;;;;;;;;;;;;;;;;5012862;28;20064;-60
2022/11/28 16:21:52;;;;;;;;;;;;;;;;;;5031424;28;19917;-59
2022/11/28 16:24:17;;;;;;;;;;;;;;;;;;5047167;28;19943;-59
2022/11/28 16:26:45;;;;;;;;;;;;;;;;;;5046117;28;19993;-60
2022/11/28 16:29:11;;;;;;;;;;;;;;;;;;5030828;28;19925;-60
2022/11/28 16:31:38;;;;;;;;;;;;;;;;;;5031442;28;19916;-60
2022/11/28 16:34:04;;;;;;;;;;;;;;;;;;5031210;28;19925;-61
2022/11/28 16:36:29;;;;;;;;;;;;;;;;;;5015669;28;19920;-61
2022/11/28 16:38:55;;;;;;;;;;;;;;;;;;5030104;28;20358;-61
2022/11/28 16:44:08;;;;;;;;;;;;;;;;;;5030024;28;20372;-60
2022/11/28 16:46:36;;;;;;;;;;;;;;;;;;5030236;28;19921;-60
2022/11/28 16:49:01;;;;;;;;;;;;;;;;;;5017513;28;19925;-61
2022/11/28 16:51:26;;;;;;;;;;;;;;;;;;5030784;28;19926;-62
2022/11/28 16:53:53;;;;;;;;;;;;;;;;;;5030085;28;20435;-59
2022/11/28 16:56:21;;;;;;;;;;;;;;;;;;5033443;28;19920;-60
2022/11/28 16:58:47;;;;;;;;;;;;;;;;;;5031149;28;20115;-62
2022/11/28 17:01:16;;;;;;;;;;;;;;;;;;5019691;28;20019;-61
2022/11/28 17:03:43;;;;;;;;;;;;;;;;;;5030024;28;19932;-60
2022/11/28 17:06:09;;;;;;;;;;;;;;;;;;5026742;28;20727;-61
2022/11/28 17:08:36;;;;;;;;;;;;;;;;;;5028648;28;19935;-60
2022/11/28 17:11:02;;;;;;;;;;;;;;;;;;5013393;28;19963;-62